Time;durP1;ratioP1;P1;durP2;ratioP2;P2;SDS_P1;SDS_P2;PMS_P1;PMS_P2;Temp;Humidity;BMP_temperature;BMP_pressure;BME280_temperature;BME280_humidity;BME280_pressure;Samples;Min_cycle;Max_cycle;Signal;HPM_P1;HPM_P2
2023/12/28 00:00:29;;;;;;;2.50;1.73;;;6.60;99.90;;;;;;4914472;29;20052;-68
2023/12/28 00:03:00;;;;;;;2.50;1.67;;;6.80;99.90;;;;;;4914685;29;20059;-68
2023/12/28 00:05:27;;;;;;;4.97;1.92;;;6.90;99.90;;;;;;4904737;29;20087;-68
2023/12/28 00:07:59;;;;;;;3.40;1.88;;;6.90;99.90;;;;;;4913079;29;20119;-67
2023/12/28 00:10:31;;;;;;;2.55;1.85;;;6.90;99.90;;;;;;4926992;29;20048;-68
2023/12/28 00:13:03;;;;;;;2.70;1.85;;;7.00;99.90;;;;;;4916830;29;20415;-67
2023/12/28 00:15:35;;;;;;;3.13;1.77;;;7.10;99.90;;;;;;4917095;29;20058;-67
2023/12/28 00:18:07;;;;;;;5.07;2.40;;;7.10;99.90;;;;;;4900517;29;20052;-67
2023/12/28 00:20:39;;;;;;;2.92;1.88;;;7.10;99.90;;;;;;4917731;29;20052;-68
2023/12/28 00:23:11;;;;;;;2.60;1.60;;;7.10;99.90;;;;;;4915135;29;20158;-68
2023/12/28 00:25:43;;;;;;;2.15;1.50;;;7.10;99.90;;;;;;4917747;29;20055;-67
2023/12/28 00:28:10;;;;;;;2.72;1.58;;;7.10;99.90;;;;;;4917395;29;20548;-68
2023/12/28 00:30:42;;;;;;;2.58;1.75;;;7.10;99.90;;;;;;4915863;29;20056;-68
2023/12/28 00:33:14;;;;;;;3.58;1.88;;;7.20;99.90;;;;;;4916212;29;20040;-68
2023/12/28 00:35:41;;;;;;;3.22;2.22;;;7.10;99.90;;;;;;4916250;29;20132;-68
2023/12/28 00:38:13;;;;;;;3.33;2.03;;;7.20;99.90;;;;;;4901504;29;20052;-68
2023/12/28 00:40:45;;;;;;;4.55;2.05;;;7.20;99.90;;;;;;4917665;29;20056;-67
2023/12/28 00:43:17;;;;;;;3.47;1.77;;;7.30;99.90;;;;;;4922629;29;20140;-67
2023/12/28 00:45:49;;;;;;;6.07;3.72;;;7.30;99.90;;;;;;4927391;29;20044;-68
2023/12/28 00:48:20;;;;;;;5.55;3.92;;;7.10;99.90;;;;;;4928400;29;20046;-67
2023/12/28 00:50:55;;;;;;;6.43;4.60;;;6.50;99.90;;;;;;4914681;29;20071;-67
2023/12/28 00:53:27;;;;;;;5.75;4.15;;;5.80;99.90;;;;;;4916025;29;20056;-67
2023/12/28 00:55:55;;;;;;;7.05;4.40;;;5.30;99.90;;;;;;4915892;29;20509;-68
2023/12/28 00:58:27;;;;;;;6.40;4.05;;;4.90;99.90;;;;;;4929294;29;20070;-67
2023/12/28 01:00:55;;;;;;;5.57;3.88;;;4.60;99.90;;;;;;4916000;29;20040;-68
2023/12/28 01:03:27;;;;;;;7.63;3.97;;;4.40;99.90;;;;;;4921971;29;20136;-68
2023/12/28 01:05:59;;;;;;;5.63;3.72;;;4.20;99.90;;;;;;4915891;29;20079;-67
2023/12/28 01:08:33;;;;;;;6.45;3.85;;;4.10;99.90;;;;;;4907971;29;20049;-68
2023/12/28 01:11:01;;;;;;;5.90;4.10;;;3.90;99.90;;;;;;4930345;29;20082;-67
2023/12/28 01:13:33;;;;;;;6.60;3.67;;;3.80;99.90;;;;;;4915620;29;20526;-67
2023/12/28 01:16:06;;;;;;;5.28;3.92;;;3.80;99.90;;;;;;4915503;29;20300;-68
2023/12/28 01:18:38;;;;;;;5.38;3.40;;;3.70;99.90;;;;;;4915345;29;20044;-68
2023/12/28 01:21:11;;;;;;;8.00;3.30;;;3.70;99.90;;;;;;4914728;29;20056;-68
2023/12/28 01:23:44;;;;;;;5.93;3.50;;;3.60;99.90;;;;;;4898489;29;20473;-68
2023/12/28 01:26:17;;;;;;;5.25;3.00;;;3.60;99.90;;;;;;4927611;29;20120;-68
2023/12/28 01:28:48;;;;;;;4.07;2.73;;;3.50;99.90;;;;;;4916275;29;20084;-67
2023/12/28 01:31:20;;;;;;;4.90;2.20;;;3.40;99.90;;;;;;4915522;29;20052;-68
2023/12/28 01:33:47;;;;;;;2.85;2.08;;;3.50;99.90;;;;;;4914337;29;20048;-68
2023/12/28 01:36:20;;;;;;;2.85;2.00;;;3.90;99.90;;;;;;4915256;29;20044;-68
2023/12/28 01:38:48;;;;;;;3.15;2.10;;;4.50;99.90;;;;;;4897230;29;20080;-68
2023/12/28 01:41:20;;;;;;;3.13;1.70;;;4.90;99.90;;;;;;4912505;29;20048;-68
2023/12/28 01:43:52;;;;;;;3.47;1.80;;;5.30;99.90;;;;;;4915181;29;20302;-68
2023/12/28 01:46:24;;;;;;;3.13;1.58;;;5.50;99.90;;;;;;4915153;29;20103;-67
2023/12/28 01:48:51;;;;;;;4.32;1.88;;;5.70;99.90;;;;;;4914852;29;20509;-68
2023/12/28 01:51:24;;;;;;;3.85;1.95;;;5.80;99.90;;;;;;4900286;29;20055;-68
2023/12/28 01:53:57;;;;;;;3.50;1.92;;;5.80;99.90;;;;;;4915176;29;20096;-67
2023/12/28 01:56:25;;;;;;;3.30;1.73;;;5.80;99.90;;;;;;4914390;29;20056;-67
2023/12/28 01:58:57;;;;;;;3.53;1.70;;;6.00;99.90;;;;;;4899947;29;20059;-68
2023/12/28 02:01:29;;;;;;;2.47;1.38;;;6.10;99.90;;;;;;4904096;29;20556;-68
2023/12/28 02:04:01;;;;;;;3.20;1.60;;;6.20;99.90;;;;;;4914422;29;20048;-67
2023/12/28 02:06:28;;;;;;;3.10;2.00;;;6.40;99.90;;;;;;4925417;29;20134;-68
2023/12/28 02:09:00;;;;;;;4.25;2.30;;;6.40;99.90;;;;;;4913325;29;20052;-68
2023/12/28 02:11:32;;;;;;;9.75;4.15;;;6.30;99.90;;;;;;4914541;29;20107;-67
2023/12/28 02:14:04;;;;;;;5.13;3.70;;;5.80;99.90;;;;;;4914163;29;20075;-68
2023/12/28 02:16:46;;;;;;;4.78;3.58;;;5.20;99.90;;;;;;4914146;29;20048;-68
2023/12/28 02:19:43;;;;;;;5.07;3.47;;;4.70;99.90;;;;;;4914617;29;20052;-68
2023/12/28 02:22:16;;;;;;;4.65;3.03;;;4.20;99.90;;;;;;4891411;29;20137;-67
2023/12/28 02:25:09;;;;;;;5.07;3.35;;;3.70;99.90;;;;;;4914020;29;20067;-67
2023/12/28 02:27:47;;;;;;;6.18;2.95;;;3.50;99.90;;;;;;4905360;29;20056;-67
2023/12/28 02:30:22;;;;;;;6.75;3.40;;;3.40;99.90;;;;;;4909522;29;20525;-67
2023/12/28 02:33:11;;;;;;;5.13;3.30;;;3.30;99.90;;;;;;4906970;29;20124;-68
2023/12/28 02:35:52;;;;;;;4.47;3.05;;;3.30;99.90;;;;;;4929643;29;20048;-67
2023/12/28 02:38:25;;;;;;;5.97;2.83;;;3.30;99.90;;;;;;4898778;29;20048;-67
2023/12/28 02:40:58;;;;;;;5.40;3.03;;;3.30;99.90;;;;;;4912852;29;20059;-67
2023/12/28 02:43:30;;;;;;;4.93;2.97;;;3.20;99.90;;;;;;4913638;29;20058;-67
2023/12/28 02:46:02;;;;;;;4.63;3.17;;;3.20;99.90;;;;;;4909684;29;20052;-67
2023/12/28 02:48:34;;;;;;;5.38;3.08;;;3.10;99.90;;;;;;4923504;29;20047;-67
2023/12/28 02:51:06;;;;;;;4.28;2.90;;;3.10;99.90;;;;;;4913757;29;20054;-67
2023/12/28 02:53:38;;;;;;;4.15;2.95;;;3.00;99.90;;;;;;4892040;29;20636;-67
2023/12/28 02:56:05;;;;;;;3.95;2.83;;;3.00;99.90;;;;;;4918620;29;20044;-67
2023/12/28 02:58:33;;;;;;;4.82;3.20;;;3.00;99.90;;;;;;4897662;29;20048;-67
2023/12/28 03:01:05;;;;;;;4.50;3.20;;;3.00;99.90;;;;;;4911807;29;20500;-67
2023/12/28 03:03:37;;;;;;;4.22;2.80;;;3.00;99.90;;;;;;4912495;29;20058;-67
2023/12/28 03:06:09;;;;;;;3.03;2.35;;;3.00;99.90;;;;;;4912426;29;20074;-67
2023/12/28 03:08:41;;;;;;;14.60;3.10;;;3.00;99.90;;;;;;4897844;29;20040;-67
2023/12/28 03:11:08;;;;;;;5.20;2.45;;;2.90;99.90;;;;;;4901915;29;20151;-67
2023/12/28 03:13:40;;;;;;;4.15;2.50;;;2.90;99.90;;;;;;4896319;29;20049;-67
2023/12/28 03:16:13;;;;;;;3.00;2.08;;;2.90;99.90;;;;;;4912973;29;20052;-67
2023/12/28 03:18:45;;;;;;;4.38;2.55;;;2.90;99.90;;;;;;4921814;29;20123;-67
2023/12/28 03:21:17;;;;;;;2.50;1.55;;;2.90;99.90;;;;;;4912933;29;20493;-67
2023/12/28 03:23:49;;;;;;;2.78;1.50;;;3.00;99.90;;;;;;4893690;29;20047;-67
2023/12/28 03:26:21;;;;;;;2.55;1.42;;;3.20;99.90;;;;;;4918557;29;20052;-67
2023/12/28 03:28:52;;;;;;;2.72;1.73;;;3.70;99.90;;;;;;4927159;29;20046;-67
2023/12/28 03:31:25;;;;;;;2.45;1.48;;;4.20;99.90;;;;;;4912980;29;20044;-67
2023/12/28 03:33:52;;;;;;;3.40;2.20;;;4.40;99.90;;;;;;4912723;29;20095;-68
2023/12/28 03:36:23;;;;;;;3.50;2.13;;;4.50;99.90;;;;;;4908493;29;20044;-67
2023/12/28 03:38:55;;;;;;;4.32;2.63;;;4.40;99.90;;;;;;4923216;29;20056;-67
2023/12/28 03:41:27;;;;;;;2.50;2.03;;;4.20;99.90;;;;;;4911516;29;20054;-67
2023/12/28 03:43:59;;;;;;;3.55;1.75;;;4.10;99.90;;;;;;4911244;29;20041;-67
2023/12/28 03:46:31;;;;;;;2.60;1.45;;;4.00;99.90;;;;;;4887737;29;20497;-67
2023/12/28 03:49:02;;;;;;;2.28;1.33;;;4.20;99.90;;;;;;4922619;29;20040;-67
2023/12/28 03:51:34;;;;;;;2.80;1.25;;;4.60;99.90;;;;;;4912871;29;20040;-67
2023/12/28 03:54:06;;;;;;;2.13;1.77;;;5.00;99.90;;;;;;4910696;29;20055;-67
2023/12/28 03:56:40;;;;;;;2.55;1.45;;;5.10;99.90;;;;;;4912650;29;20497;-67
2023/12/28 03:59:15;;;;;;;2.92;1.60;;;5.10;99.90;;;;;;4927721;29;20048;-67
2023/12/28 04:01:47;;;;;;;1.70;1.00;;;5.10;99.90;;;;;;4914203;29;20761;-67
2023/12/28 04:04:19;;;;;;;2.20;1.42;;;5.10;99.90;;;;;;4912789;29;20527;-67
2023/12/28 04:06:51;;;;;;;4.40;1.33;;;5.10;99.90;;;;;;4910982;29;20048;-67
2023/12/28 04:09:24;;;;;;;2.28;1.20;;;5.10;99.90;;;;;;4913897;29;20044;-67
2023/12/28 04:11:56;;;;;;;2.15;1.35;;;5.20;99.90;;;;;;4911628;29;20048;-67
2023/12/28 04:14:28;;;;;;;2.40;1.70;;;5.40;99.90;;;;;;4920900;29;20420;-67
2023/12/28 04:17:00;;;;;;;4.60;2.88;;;5.50;99.90;;;;;;4916321;29;20048;-67
2023/12/28 04:19:31;;;;;;;4.32;2.60;;;5.10;99.90;;;;;;4913133;29;20109;-67
2023/12/28 04:22:03;;;;;;;5.47;3.10;;;4.70;99.90;;;;;;4914053;29;20048;-67
2023/12/28 04:24:36;;;;;;;6.22;3.17;;;4.30;99.90;;;;;;4928631;29;20151;-67
2023/12/28 04:27:04;;;;;;;6.75;3.10;;;3.90;99.90;;;;;;4910750;29;20473;-67
2023/12/28 04:29:36;;;;;;;3.70;2.78;;;3.70;99.90;;;;;;4912917;29;20044;-67
2023/12/28 04:32:07;;;;;;;5.10;3.33;;;3.60;99.90;;;;;;4914182;29;20044;-67
2023/12/28 04:34:42;;;;;;;4.85;3.60;;;3.40;99.90;;;;;;4914077;29;20075;-67
2023/12/28 04:37:14;;;;;;;6.78;4.10;;;3.30;99.90;;;;;;4926255;29;20417;-67
2023/12/28 04:39:41;;;;;;;5.90;3.60;;;3.20;99.90;;;;;;4922562;29;20040;-67
2023/12/28 04:42:13;;;;;;;46.20;21.40;;;3.20;99.90;;;;;;4928666;29;20087;-67
2023/12/28 04:44:45;;;;;;;62.60;26.55;;;3.10;99.90;;;;;;4914146;29;20048;-67
2023/12/28 04:47:16;;;;;;;24.08;10.63;;;3.00;99.90;;;;;;4926233;29;20060;-67
2023/12/28 04:49:43;;;;;;;9.73;4.53;;;2.90;99.90;;;;;;4909988;29;20044;-67
2023/12/28 04:52:15;;;;;;;4.95;3.30;;;2.90;99.90;;;;;;4916173;29;20505;-67
2023/12/28 04:54:47;;;;;;;6.65;3.28;;;2.90;99.90;;;;;;4915940;29;20125;-67
2023/12/28 04:57:14;;;;;;;2.63;1.80;;;2.90;99.90;;;;;;4912224;29;20036;-67
2023/12/28 04:59:48;;;;;;;3.35;1.70;;;2.90;99.90;;;;;;4896246;29;20052;-67
2023/12/28 05:02:20;;;;;;;2.25;1.38;;;3.40;99.90;;;;;;4915993;29;20116;-67
2023/12/28 05:04:52;;;;;;;2.58;1.50;;;4.10;99.90;;;;;;4915982;29;20044;-67
2023/12/28 05:07:24;;;;;;;1.90;1.10;;;4.80;99.90;;;;;;4915731;29;20052;-67
2023/12/28 05:09:56;;;;;;;3.28;1.27;;;5.30;99.90;;;;;;4917139;29;20187;-67
2023/12/28 05:12:28;;;;;;;2.45;1.50;;;5.60;99.90;;;;;;4887988;29;20049;-67
2023/12/28 05:15:00;;;;;;;1.90;1.25;;;5.90;99.90;;;;;;4900841;29;20047;-67
2023/12/28 05:17:32;;;;;;;2.22;1.20;;;6.10;99.90;;;;;;4914265;29;20040;-67
2023/12/28 05:20:00;;;;;;;2.88;1.60;;;6.20;99.90;;;;;;4915575;29;20058;-67
2023/12/28 05:22:32;;;;;;;2.15;1.23;;;6.30;99.90;;;;;;4916512;29;20147;-67
2023/12/28 05:25:04;;;;;;;1.73;1.15;;;6.50;99.90;;;;;;4910464;29;20048;-67
2023/12/28 05:27:35;;;;;;;3.35;1.40;;;6.50;99.90;;;;;;4922423;29;20074;-67
2023/12/28 05:30:08;;;;;;;1.75;1.02;;;6.70;99.90;;;;;;4916757;29;20040;-67
2023/12/28 05:32:40;;;;;;;2.65;1.33;;;6.90;99.90;;;;;;4909668;29;20059;-67
2023/12/28 05:35:12;;;;;;;5.38;1.70;;;7.10;99.90;;;;;;4923608;29;20048;-67
2023/12/28 05:37:44;;;;;;;2.17;1.63;;;7.10;99.90;;;;;;4926926;29;20052;-67
2023/12/28 05:40:16;;;;;;;1.50;0.93;;;7.30;99.90;;;;;;4916638;29;20059;-67
2023/12/28 05:42:48;;;;;;;2.65;1.27;;;7.30;99.90;;;;;;4914761;29;20446;-67
2023/12/28 05:45:20;;;;;;;1.95;1.15;;;7.30;99.90;;;;;;4929394;29;20052;-67
2023/12/28 05:47:52;;;;;;;2.53;1.13;;;7.30;99.90;;;;;;4916303;29;20402;-67
2023/12/28 05:50:24;;;;;;;2.80;1.48;;;7.30;99.90;;;;;;4916386;29;20048;-67
2023/12/28 05:52:56;;;;;;;3.63;1.20;;;7.40;99.90;;;;;;4916306;29;20043;-67
2023/12/28 05:55:28;;;;;;;2.25;1.30;;;7.50;99.90;;;;;;4900059;29;20054;-67
2023/12/28 05:57:59;;;;;;;3.45;1.20;;;7.50;99.90;;;;;;4916312;29;20044;-66
2023/12/28 06:00:26;;;;;;;2.20;1.40;;;7.60;99.90;;;;;;4916066;29;20127;-67
2023/12/28 06:02:58;;;;;;;1.85;1.10;;;7.60;99.90;;;;;;4915875;29;20056;-67
2023/12/28 06:05:25;;;;;;;2.92;1.40;;;7.60;99.90;;;;;;4914729;29;20488;-67
2023/12/28 06:07:57;;;;;;;2.08;1.25;;;7.60;99.90;;;;;;4915863;29;20048;-67
2023/12/28 06:10:29;;;;;;;3.15;1.27;;;7.50;99.90;;;;;;4929376;29;20044;-67
2023/12/28 06:13:01;;;;;;;1.80;1.20;;;7.60;99.90;;;;;;4928567;29;20119;-67
2023/12/28 06:15:33;;;;;;;5.03;2.05;;;7.50;99.90;;;;;;4911663;29;20128;-67
2023/12/28 06:18:05;;;;;;;7.95;2.78;;;7.40;99.90;;;;;;4909826;29;20055;-67
2023/12/28 06:20:36;;;;;;;3.83;2.25;;;7.00;99.90;;;;;;4915640;29;20051;-67
2023/12/28 06:23:09;;;;;;;9.98;5.30;;;6.70;99.90;;;;;;4915966;29;20445;-67
2023/12/28 06:25:41;;;;;;;15.77;8.18;;;6.30;99.90;;;;;;4903276;29;20104;-67
2023/12/28 06:28:12;;;;;;;12.95;6.47;;;5.90;99.90;;;;;;4902029;29;20048;-67
2023/12/28 06:30:45;;;;;;;33.75;15.65;;;5.60;99.90;;;;;;4915624;29;20044;-67
2023/12/28 06:33:16;;;;;;;100.65;41.17;;;5.40;99.90;;;;;;4910683;29;20040;-67
2023/12/28 06:35:48;;;;;;;55.28;21.67;;;5.20;99.90;;;;;;4909413;29;20043;-67
2023/12/28 06:38:20;;;;;;;26.10;12.45;;;5.00;99.90;;;;;;4912277;29;20656;-67
2023/12/28 06:40:47;;;;;;;8.75;4.15;;;5.00;99.90;;;;;;4914670;29;20139;-67
2023/12/28 06:43:19;;;;;;;2.67;1.60;;;5.10;99.90;;;;;;4912125;29;20044;-67
2023/12/28 06:45:46;;;;;;;2.70;1.50;;;5.30;99.90;;;;;;4911562;29;20055;-67
2023/12/28 06:48:18;;;;;;;3.22;1.05;;;5.40;99.90;;;;;;4895029;29;20048;-67
2023/12/28 06:50:50;;;;;;;3.40;1.20;;;5.50;99.90;;;;;;4904407;29;20052;-67
2023/12/28 06:53:22;;;;;;;2.80;1.30;;;5.60;99.90;;;;;;4910129;29;20040;-66
2023/12/28 06:55:49;;;;;;;2.58;1.70;;;5.70;99.90;;;;;;4922935;29;20076;-67
2023/12/28 06:58:20;;;;;;;1.52;1.25;;;5.60;99.90;;;;;;4909663;29;20064;-66
2023/12/28 07:00:52;;;;;;;2.15;1.00;;;5.60;99.90;;;;;;4917147;29;20421;-67
2023/12/28 07:03:25;;;;;;;3.25;1.40;;;5.80;99.90;;;;;;4911618;29;20552;-67
2023/12/28 07:05:57;;;;;;;2.90;1.38;;;5.80;99.90;;;;;;4904924;29;21450;-67
2023/12/28 07:08:29;;;;;;;1.85;1.45;;;6.00;99.90;;;;;;4896007;29;20040;-68
2023/12/28 07:10:57;;;;;;;2.20;1.10;;;6.20;99.90;;;;;;4911110;29;20127;-67
2023/12/28 07:13:29;;;;;;;5.45;3.70;;;6.40;99.90;;;;;;4906986;29;20055;-67
2023/12/28 07:15:56;;;;;;;9.52;2.67;;;6.50;99.90;;;;;;4893358;29;20183;-67
2023/12/28 07:18:23;;;;;;;3.63;2.50;;;6.30;99.90;;;;;;4909447;29;20046;-67
2023/12/28 07:20:55;;;;;;;3.92;2.50;;;6.10;99.90;;;;;;4909458;29;20050;-67
2023/12/28 07:23:27;;;;;;;3.88;2.83;;;6.00;99.90;;;;;;4910679;29;20050;-67
2023/12/28 07:25:54;;;;;;;3.97;3.03;;;5.80;99.90;;;;;;4913583;29;20048;-67
2023/12/28 07:28:21;;;;;;;2.55;1.33;;;5.60;99.90;;;;;;4914444;29;20044;-67
2023/12/28 07:30:53;;;;;;;2.95;1.30;;;5.60;99.90;;;;;;4898658;29;20044;-67
2023/12/28 07:33:20;;;;;;;7.28;1.20;;;5.80;99.90;;;;;;4910492;29;20413;-67
2023/12/28 07:35:52;;;;;;;2.83;1.10;;;6.20;99.90;;;;;;4914637;29;20072;-67
2023/12/28 07:38:24;;;;;;;2.08;1.33;;;6.80;99.90;;;;;;4921251;29;20059;-67
2023/12/28 07:40:57;;;;;;;2.20;0.98;;;7.10;99.90;;;;;;4908385;29;20040;-67
2023/12/28 07:43:29;;;;;;;2.15;1.20;;;7.40;99.90;;;;;;4922929;29;20080;-67
2023/12/28 07:46:01;;;;;;;1.58;0.95;;;7.60;99.90;;;;;;4914566;29;20424;-67
2023/12/28 07:48:33;;;;;;;1.85;1.08;;;7.90;99.90;;;;;;4914656;29;20055;-67
2023/12/28 07:51:06;;;;;;;2.40;1.10;;;8.10;99.90;;;;;;4914371;29;20036;-67
2023/12/28 07:53:38;;;;;;;1.00;0.90;;;8.20;99.90;;;;;;4928073;29;20041;-67
2023/12/28 07:56:10;;;;;;;2.70;1.20;;;8.20;99.90;;;;;;4912311;29;20543;-67
2023/12/28 07:58:42;;;;;;;2.33;1.58;;;8.30;99.90;;;;;;4914579;29;20509;-66
2023/12/28 08:01:14;;;;;;;2.30;1.30;;;8.40;99.90;;;;;;4909625;29;20444;-66
2023/12/28 08:03:46;;;;;;;2.22;1.40;;;8.50;99.90;;;;;;4913265;29;20084;-68
2023/12/28 08:06:18;;;;;;;1.80;1.20;;;8.50;99.90;;;;;;4906845;29;20517;-67
2023/12/28 08:08:50;;;;;;;1.77;0.93;;;8.60;99.90;;;;;;4920206;29;20517;-67
2023/12/28 08:11:22;;;;;;;2.00;1.20;;;8.80;99.90;;;;;;4898135;29;20497;-66
2023/12/28 08:13:53;;;;;;;2.92;1.20;;;8.80;99.90;;;;;;4914039;29;20036;-66
2023/12/28 08:16:26;;;;;;;2.03;1.13;;;8.90;99.90;;;;;;4914232;29;20048;-66
2023/12/28 08:18:57;;;;;;;1.95;1.20;;;9.00;99.90;;;;;;4913186;29;20036;-66
2023/12/28 08:21:29;;;;;;;1.52;1.00;;;9.10;99.90;;;;;;4927410;29;20521;-67
2023/12/28 08:24:02;;;;;;;1.33;0.82;;;9.10;99.90;;;;;;4926918;29;20083;-67
2023/12/28 08:26:34;;;;;;;3.70;1.20;;;9.20;99.90;;;;;;4914797;29;20047;-67
2023/12/28 08:29:06;;;;;;;4.20;1.20;;;9.20;99.90;;;;;;4928317;29;20050;-66
2023/12/28 08:31:38;;;;;;;3.15;1.20;;;9.30;99.90;;;;;;4912535;29;20036;-65
2023/12/28 08:34:05;;;;;;;1.88;1.00;;;9.30;99.90;;;;;;4917588;29;20048;-67
2023/12/28 08:36:36;;;;;;;1.70;1.10;;;9.30;99.90;;;;;;4910452;29;20044;-66
2023/12/28 08:39:04;;;;;;;2.30;1.30;;;9.40;99.90;;;;;;4917774;29;20048;-66
2023/12/28 08:41:36;;;;;;;3.80;1.30;;;9.40;99.90;;;;;;4916898;29;20056;-66
2023/12/28 08:44:08;;;;;;;2.33;1.25;;;9.40;99.90;;;;;;4916574;29;20599;-66
2023/12/28 08:46:39;;;;;;;1.65;1.10;;;9.40;99.90;;;;;;4916123;29;20145;-66
2023/12/28 08:49:11;;;;;;;1.75;0.98;;;9.40;99.90;;;;;;4916575;29;20040;-66
2023/12/28 08:51:43;;;;;;;2.70;1.50;;;9.50;99.90;;;;;;4917545;29;20036;-66
2023/12/28 08:54:15;;;;;;;2.47;1.00;;;9.60;99.90;;;;;;4917581;29;20138;-66
2023/12/28 08:56:48;;;;;;;2.55;1.10;;;9.70;99.90;;;;;;4909544;29;20040;-66
2023/12/28 08:59:20;;;;;;;3.25;1.27;;;9.70;99.90;;;;;;4907407;29;20060;-66
2023/12/28 09:01:54;;;;;;;2.63;1.00;;;9.70;99.90;;;;;;4891894;29;20071;-66
2023/12/28 09:04:26;;;;;;;2.10;1.02;;;9.70;99.90;;;;;;4917316;29;20055;-66
2023/12/28 09:06:57;;;;;;;2.88;1.85;;;9.70;99.90;;;;;;4917134;29;20517;-66
2023/12/28 09:09:24;;;;;;;2.20;1.27;;;9.70;99.90;;;;;;4917231;29;20528;-66
2023/12/28 09:11:56;;;;;;;1.85;1.10;;;9.70;99.90;;;;;;4902409;29;20417;-66
2023/12/28 09:14:28;;;;;;;1.70;0.90;;;9.80;99.90;;;;;;4900727;29;20048;-66
2023/12/28 09:16:59;;;;;;;2.65;1.40;;;9.80;99.90;;;;;;4917143;29;20206;-66
2023/12/28 09:19:31;;;;;;;1.90;1.00;;;9.90;99.90;;;;;;4900763;29;20044;-66
2023/12/28 09:22:04;;;;;;;1.88;0.80;;;10.00;99.90;;;;;;4915041;29;20075;-66
2023/12/28 09:24:36;;;;;;;3.92;1.40;;;10.10;99.90;;;;;;4915788;29;20060;-65
2023/12/28 09:27:08;;;;;;;1.45;1.00;;;10.10;99.90;;;;;;4923114;29;20055;-66
2023/12/28 09:29:40;;;;;;;2.28;1.25;;;10.10;99.90;;;;;;4916951;29;20040;-66
2023/12/28 09:32:07;;;;;;;2.08;1.50;;;10.20;99.90;;;;;;4916495;29;20040;-66
2023/12/28 09:34:40;;;;;;;2.08;1.20;;;10.20;99.90;;;;;;4916727;29;20040;-66
2023/12/28 09:37:12;;;;;;;1.23;1.00;;;10.20;99.90;;;;;;4915365;29;20048;-66
2023/12/28 09:39:44;;;;;;;9.52;1.50;;;10.20;99.90;;;;;;4915177;29;20048;-65
2023/12/28 09:42:24;;;;;;;1.30;0.80;;;10.20;99.90;;;;;;4926039;29;20048;-66
2023/12/28 09:44:56;;;;;;;2.40;1.00;;;10.30;99.90;;;;;;4916649;29;20048;-66
2023/12/28 09:47:28;;;;;;;3.80;1.10;;;10.30;99.90;;;;;;4914533;29;20062;-66
2023/12/28 09:49:55;;;;;;;2.33;1.88;;;10.30;99.90;;;;;;4916438;29;20679;-65
2023/12/28 09:52:27;;;;;;;1.50;1.05;;;10.30;99.90;;;;;;4916502;29;20063;-67
2023/12/28 09:54:59;;;;;;;2.10;1.00;;;10.30;99.90;;;;;;4915672;29;20048;-66
2023/12/28 09:57:26;;;;;;;1.42;1.10;;;10.40;99.90;;;;;;4921292;29;20092;-66
2023/12/28 09:59:59;;;;;;;1.80;1.30;;;10.30;99.90;;;;;;4916567;29;20058;-66
2023/12/28 10:02:26;;;;;;;2.17;1.33;;;10.30;99.90;;;;;;4915602;29;20092;-65
2023/12/28 10:04:57;;;;;;;4.55;1.05;;;10.30;99.90;;;;;;4915106;29;20055;-66
2023/12/28 10:07:31;;;;;;;2.13;1.15;;;10.40;99.90;;;;;;4914758;29;20555;-66
2023/12/28 10:10:04;;;;;;;1.38;1.08;;;10.30;99.90;;;;;;4913859;29;20581;-65
2023/12/28 10:12:37;;;;;;;1.77;1.17;;;10.30;99.90;;;;;;4914405;29;20040;-66
2023/12/28 10:15:09;;;;;;;2.30;1.02;;;10.30;99.90;;;;;;4915819;29;20051;-66
2023/12/28 10:17:36;;;;;;;3.53;1.17;;;10.30;99.90;;;;;;4914526;29;20032;-66
2023/12/28 10:20:09;;;;;;;1.60;1.10;;;10.30;99.90;;;;;;4913159;29;20048;-66
2023/12/28 10:22:41;;;;;;;1.77;1.10;;;10.40;99.90;;;;;;4920102;29;20091;-66
2023/12/28 10:25:13;;;;;;;1.92;1.00;;;10.40;99.90;;;;;;4902134;29;20059;-66
2023/12/28 10:27:45;;;;;;;2.28;1.35;;;10.40;99.90;;;;;;4905354;29;20045;-66
2023/12/28 10:30:17;;;;;;;2.17;1.35;;;10.40;99.90;;;;;;4924087;29;20052;-66
2023/12/28 10:32:49;;;;;;;3.05;1.30;;;10.40;99.90;;;;;;4908314;29;20044;-66
2023/12/28 10:35:16;;;;;;;3.47;1.38;;;10.40;99.90;;;;;;4910617;29;20099;-66
2023/12/28 10:37:55;;;;;;;2.15;1.20;;;10.40;99.90;;;;;;4911971;29;20526;-66
2023/12/28 10:40:25;;;;;;;2.03;1.05;;;10.40;99.90;;;;;;4913133;29;20568;-66
2023/12/28 10:43:06;;;;;;;2.15;1.08;;;10.40;99.90;;;;;;4912060;29;20050;-66
2023/12/28 10:45:40;;;;;;;4.25;1.40;;;10.50;99.90;;;;;;4906853;29;20051;-66
2023/12/28 10:48:12;;;;;;;;;;;10.50;99.90;;;;;;4912024;29;20505;-66
2023/12/28 10:50:49;;;;;;;2.38;1.38;;;10.50;99.90;;;;;;4911123;29;20285;-66
2023/12/28 10:53:43;;;;;;;2.42;1.00;;;10.40;99.90;;;;;;4915171;29;20054;-66
2023/12/28 10:56:27;;;;;;;1.90;0.90;;;10.40;99.90;;;;;;4912435;29;20139;-66
2023/12/28 10:59:28;;;;;;;2.15;1.30;;;10.40;99.90;;;;;;4903103;29;20047;-66
2023/12/28 11:02:03;;;;;;;2.13;1.00;;;10.40;99.90;;;;;;4908623;29;20050;-66
2023/12/28 11:04:43;;;;;;;2.05;1.00;;;10.40;99.90;;;;;;4923107;29;20424;-66
2023/12/28 11:07:13;;;;;;;2.08;1.30;;;10.40;99.90;;;;;;4911249;29;20493;-66
2023/12/28 11:09:45;;;;;;;2.20;1.00;;;10.40;99.90;;;;;;4912691;29;20044;-65
2023/12/28 11:12:18;;;;;;;1.13;0.88;;;10.30;99.90;;;;;;4916163;29;20040;-66
2023/12/28 11:14:52;;;;;;;1.77;0.95;;;10.40;99.90;;;;;;4908872;29;20064;-66
2023/12/28 11:17:20;;;;;;;1.60;1.08;;;10.30;99.90;;;;;;4911284;29;20095;-65
2023/12/28 11:19:54;;;;;;;1.50;0.90;;;10.30;99.90;;;;;;4911981;29;20040;-66
2023/12/28 11:22:26;;;;;;;1.55;0.88;;;10.30;99.90;;;;;;4905457;29;20432;-66
2023/12/28 11:24:53;;;;;;;1.70;0.70;;;10.30;99.90;;;;;;4925609;29;20041;-65
2023/12/28 11:27:21;;;;;;;1.40;1.10;;;10.30;99.90;;;;;;4906012;29;20068;-66
2023/12/28 11:29:53;;;;;;;2.03;1.10;;;10.30;99.90;;;;;;4926341;29;20139;-67
2023/12/28 11:32:20;;;;;;;1.55;1.30;;;10.20;99.90;;;;;;4910024;29;20040;-66
2023/12/28 11:34:58;;;;;;;2.13;1.10;;;10.20;99.90;;;;;;4912640;29;20048;-66
2023/12/28 11:37:32;;;;;;;1.80;1.10;;;10.20;99.90;;;;;;4912905;29;20051;-67
2023/12/28 11:40:14;;;;;;;3.22;1.15;;;10.20;99.90;;;;;;4910035;29;20528;-66
2023/12/28 11:42:51;;;;;;;2.15;0.90;;;10.20;99.90;;;;;;4892006;29;20121;-66
2023/12/28 11:45:24;;;;;;;2.20;1.27;;;10.20;99.90;;;;;;4907126;29;20052;-66
2023/12/28 11:48:03;;;;;;;;;;;10.20;99.90;;;;;;4909988;29;20056;-66
2023/12/28 11:50:47;;;;;;;1.63;1.00;;;10.20;99.90;;;;;;4911299;29;19927;-66
2023/12/28 11:53:20;;;;;;;2.08;1.00;;;10.20;99.90;;;;;;4910077;29;20378;-66
2023/12/28 11:55:59;;;;;;;2.63;1.40;;;10.20;99.90;;;;;;4904631;29;20044;-66
2023/12/28 11:58:32;;;;;;;2.53;1.48;;;10.20;99.90;;;;;;4910406;29;20063;-66
2023/12/28 12:01:04;;;;;;;;;;;10.20;99.90;;;;;;4919187;29;20055;-67
2023/12/28 12:03:36;;;;;;;2.05;1.15;;;10.20;99.90;;;;;;4915443;29;19978;-66
2023/12/28 12:06:08;;;;;;;1.80;1.25;;;10.10;99.90;;;;;;4912957;29;20151;-66
2023/12/28 12:08:40;;;;;;;3.67;1.13;;;10.10;99.90;;;;;;4911538;29;20064;-66
2023/12/28 12:11:12;;;;;;;1.92;1.00;;;10.10;99.90;;;;;;4914120;29;20048;-66
2023/12/28 12:13:40;;;;;;;1.70;1.30;;;10.10;99.90;;;;;;4913298;29;20493;-67
2023/12/28 12:16:14;;;;;;;1.52;1.00;;;10.10;99.90;;;;;;4915017;29;20032;-66
2023/12/28 12:18:47;;;;;;;2.78;1.25;;;10.20;99.90;;;;;;4908117;29;20048;-66
2023/12/28 12:21:19;;;;;;;3.13;1.60;;;10.20;99.90;;;;;;4911017;29;20048;-66
2023/12/28 12:23:51;;;;;;;1.80;1.20;;;10.20;99.90;;;;;;4913863;29;20824;-66
2023/12/28 12:26:23;;;;;;;2.45;1.20;;;10.10;99.90;;;;;;4914072;29;20048;-66
2023/12/28 12:28:55;;;;;;;2.17;1.10;;;10.20;99.90;;;;;;4912327;29;20045;-66
2023/12/28 12:31:28;;;;;;;2.45;1.00;;;10.20;99.90;;;;;;4914161;29;20047;-66
2023/12/28 12:34:00;;;;;;;2.72;1.17;;;10.20;99.90;;;;;;4913164;29;20042;-66
2023/12/28 12:36:32;;;;;;;1.98;1.10;;;10.20;99.90;;;;;;4915421;29;20040;-66
2023/12/28 12:39:08;;;;;;;1.67;1.13;;;10.20;99.90;;;;;;4910471;29;20048;-66
2023/12/28 12:41:40;;;;;;;1.52;1.10;;;10.10;99.90;;;;;;4913632;29;20044;-66
2023/12/28 12:44:12;;;;;;;2.63;1.55;;;10.20;99.90;;;;;;4925907;29;20088;-66
2023/12/28 12:46:44;;;;;;;1.98;1.42;;;10.20;99.90;;;;;;4912247;29;20064;-66
2023/12/28 12:49:16;;;;;;;3.38;1.58;;;10.20;99.90;;;;;;4913218;29;20075;-66
2023/12/28 12:51:51;;;;;;;2.08;1.38;;;10.20;99.90;;;;;;4914815;29;20063;-66
2023/12/28 12:54:21;;;;;;;1.73;1.10;;;10.20;99.90;;;;;;4912406;29;20067;-66
2023/12/28 12:56:54;;;;;;;4.47;2.20;;;10.20;99.90;;;;;;4912202;29;20037;-67
2023/12/28 12:59:26;;;;;;;3.30;1.40;;;10.20;99.90;;;;;;4927576;29;20140;-67
2023/12/28 13:02:00;;;;;;;2.87;1.30;;;10.30;99.90;;;;;;4912095;29;20062;-66
2023/12/28 13:04:32;;;;;;;;;;;10.20;99.90;;;;;;4899384;29;20056;-66
2023/12/28 13:07:04;;;;;;;2.67;1.85;;;10.20;99.90;;;;;;4914959;29;19930;-67
2023/12/28 13:09:31;;;;;;;3.05;1.73;;;10.20;99.90;;;;;;4913369;29;20122;-67
2023/12/28 13:12:03;;;;;;;2.47;1.38;;;10.20;99.90;;;;;;4921215;29;20123;-66
2023/12/28 13:14:35;;;;;;;2.67;2.17;;;10.20;99.90;;;;;;4923736;29;20041;-66
2023/12/28 13:17:07;;;;;;;3.25;1.67;;;10.20;99.90;;;;;;4911469;29;20047;-66
2023/12/28 13:19:39;;;;;;;1.90;1.40;;;10.20;99.90;;;;;;4911401;29;20119;-66